Terminal Aerodrome Forecast
Issued by NWS

Home | Current Version | Previous Version | Text Only | Print | Product List | Glossary On
Versions: 1 2 3 4 5 6 7 8 9 10 11 12 13 14 15 16 17 18 19 20 21 22 23 24 25 26 27 28 29
000
FTUS41 KPHI 290520
TAFMIV
TAF
KMIV 290520Z 2906/3006 05005KT 5SM BR OVC008
      TEMPO 2906/2910 2SM -DZ BR OVC004
     FM291200 07008KT 6SM BR OVC010
      TEMPO 2916/2920 4SM -RA BR SCT010 OVC020
     FM292300 09006KT 3SM BR OVC010
     FM300300 04007KT 3SM -DZ BR OVC005=

USA.gov is the U.S. government's official web portal to all federal, state and local government web resources and services.